Branson, Missouri
Current Conditions -  °F | °C
As of 11:56 AM on Thursday 18 Dec 2014 (Local Time) from KBBG Reporting Station
Overcast Overcast  
Wind Chill: 33°   Ceiling: 400
Heat Index: 37°   Visibility: 7mi
Dew Point: 36°   Wind: 6mph
Humidity: 93%   Direction: 120°ESE
Pressure: 30.18"   Gusts: NA
Location:  36.65°N, 93.25°W
Report Text: KBBG 181756Z 12005KT 7SM OVC004 03/02 A3018
Loading
Personal Weather Stations






























Interactive Weather Map New forecast layout! Learn more

10-Day Weather Forecast

Advertisements
Track Severe Weather on mobile